Airfield :
LOGIN :

Register | Disclaimer

   EN    FR    IT 

 










Legend :    VFR   Marginal VFR   IFR   Intensive IFR   Very Intensive IFR
Visi :
Ceiling :
>= 8 km
>= 3000ft
5 to 8 km
1000 to 3000 ft
1500m to 5 km
500 to 1000 ft
800 to 1500m
200 to 500 ft
< 800m
< 200 ft
Symbols :   Thunderstorms  Fog  Heavy snow  Heavy precipitations  Wind > 20 kt
SIGMETs :     Misc.  Thunderstorms  Icing  Turbulence  Mountain Waves  Volcanic Ashes






- Airport Elevation : 779 ft
- IATA code : CMF


LFLB - Chambery / Aix-Les-Bains

CURRENT METAR :
  • 271830Z AUTO VRB03KT 8000 -RA BKN044 OVC054 06/05 Q1014 TEMPO RA

EXPIRED METARs :
  • 271800Z AUTO 17003KT 9000 -RA FEW040 BKN047 OVC054 07/04 Q1014 TEMPO RA
  • 271730Z AUTO 30003KT 260V350 9999 -RA FEW015 OVC050 07/05 Q1014 TEMPO RA
  • 271700Z AUTO 33003KT 270V020 9999 -RA FEW043 BKN058 OVC070 07/04 Q1014 TEMPO 20015G25KT RA SCT020TCU OVC030
  • 271630Z AUTO VRB03KT 9999 -RA BKN070 OVC086 07/04 Q1014 TEMPO 20015G25KT RA SCT020TCU OVC030
  • 271600Z AUTO VRB02KT 9999 FEW068 OVC086 08/04 Q1014 TEMPO 20015G25KT RA SCT020TCU OVC030

TAF TAF LFLB
Valid from the 27 at 18:00 until the 28 at 18:00 UTC


271700Z 2718/2818 16005KT 9999 OVC050
TEMPO 2718/2801 RA
TEMPO 2802/2811 16012G28KT
TEMPO 2811/2818 6000 SHRA SCT020TCU OVC030
PROB40
TEMPO 2812/2816 34015G25KT



MET'MAP, your aeronautical weather chart ! - Copyright ORBIFLY December 2007 - Disclaimer

ORBIFLY MET'MAP TEAM :

Programming & Development : Alexandra Zaïnal
Concept & original design : Baudouin d'Aumeries
Assistance for programming : Marc-Olivier Méhu
Technical & hardware support : Manuel Goepfert

Contact : metmap@orbifly.com




SOURCES & CREDITS :

   NOAA